sensor_id;sensor_type;location;lat;lon;timestamp;temperature;humidity
68480;DHT22;55469;48.934;12.050;2024-03-29T00:00:35;6.40;99.90
68480;DHT22;55469;48.934;12.050;2024-03-29T00:03:01;6.40;99.90
68480;DHT22;55469;48.934;12.050;2024-03-29T00:05:27;6.40;99.90
68480;DHT22;55469;48.934;12.050;2024-03-29T00:07:52;6.40;99.90
68480;DHT22;55469;48.934;12.050;2024-03-29T00:10:18;6.40;99.90
68480;DHT22;55469;48.934;12.050;2024-03-29T00:12:44;6.40;99.90
68480;DHT22;55469;48.934;12.050;2024-03-29T00:15:09;6.40;99.90
68480;DHT22;55469;48.934;12.050;2024-03-29T00:17:35;6.40;99.90
68480;DHT22;55469;48.934;12.050;2024-03-29T00:20:01;6.40;99.90
68480;DHT22;55469;48.934;12.050;2024-03-29T00:22:27;6.40;99.90
68480;DHT22;55469;48.934;12.050;2024-03-29T00:24:53;6.40;99.90
68480;DHT22;55469;48.934;12.050;2024-03-29T00:27:19;6.30;99.90
68480;DHT22;55469;48.934;12.050;2024-03-29T00:29:44;6.30;99.90
68480;DHT22;55469;48.934;12.050;2024-03-29T00:32:12;6.30;99.90
68480;DHT22;55469;48.934;12.050;2024-03-29T00:34:38;6.40;99.90
68480;DHT22;55469;48.934;12.050;2024-03-29T00:37:03;6.30;99.90
68480;DHT22;55469;48.934;12.050;2024-03-29T00:39:29;6.30;99.90
68480;DHT22;55469;48.934;12.050;2024-03-29T00:41:55;6.30;99.90
68480;DHT22;55469;48.934;12.050;2024-03-29T00:44:21;6.30;99.90
68480;DHT22;55469;48.934;12.050;2024-03-29T00:46:46;6.30;99.90
68480;DHT22;55469;48.934;12.050;2024-03-29T00:49:12;6.30;99.90
68480;DHT22;55469;48.934;12.050;2024-03-29T00:51:38;6.30;99.90
68480;DHT22;55469;48.934;12.050;2024-03-29T00:54:04;6.30;99.90
68480;DHT22;55469;48.934;12.050;2024-03-29T00:56:30;6.30;99.90
68480;DHT22;55469;48.934;12.050;2024-03-29T00:58:56;6.30;99.90
68480;DHT22;55469;48.934;12.050;2024-03-29T01:01:21;6.30;99.90
68480;DHT22;55469;48.934;12.050;2024-03-29T01:03:47;6.30;99.90
68480;DHT22;55469;48.934;12.050;2024-03-29T01:06:13;6.30;99.90
68480;DHT22;55469;48.934;12.050;2024-03-29T01:08:38;6.30;99.90
68480;DHT22;55469;48.934;12.050;2024-03-29T01:11:04;6.20;99.90
68480;DHT22;55469;48.934;12.050;2024-03-29T01:13:29;6.20;99.90
68480;DHT22;55469;48.934;12.050;2024-03-29T01:15:55;6.20;99.90
68480;DHT22;55469;48.934;12.050;2024-03-29T01:18:21;6.20;99.90
68480;DHT22;55469;48.934;12.050;2024-03-29T01:20:46;6.30;99.90
68480;DHT22;55469;48.934;12.050;2024-03-29T01:23:12;6.20;99.90
68480;DHT22;55469;48.934;12.050;2024-03-29T01:25:38;6.20;99.90
68480;DHT22;55469;48.934;12.050;2024-03-29T01:28:03;6.20;99.90
68480;DHT22;55469;48.934;12.050;2024-03-29T01:30:29;6.20;99.90
68480;DHT22;55469;48.934;12.050;2024-03-29T01:32:55;6.20;99.90
68480;DHT22;55469;48.934;12.050;2024-03-29T01:35:21;6.20;99.90
68480;DHT22;55469;48.934;12.050;2024-03-29T01:37:46;6.20;99.90
68480;DHT22;55469;48.934;12.050;2024-03-29T01:40:12;6.20;99.90
68480;DHT22;55469;48.934;12.050;2024-03-29T01:42:38;6.10;99.90
68480;DHT22;55469;48.934;12.050;2024-03-29T01:45:04;6.10;99.90
68480;DHT22;55469;48.934;12.050;2024-03-29T01:47:30;6.10;99.90
68480;DHT22;55469;48.934;12.050;2024-03-29T01:49:55;6.10;99.90
68480;DHT22;55469;48.934;12.050;2024-03-29T01:52:21;6.10;99.90
68480;DHT22;55469;48.934;12.050;2024-03-29T01:54:47;6.10;99.90
68480;DHT22;55469;48.934;12.050;2024-03-29T01:57:14;6.10;99.90
68480;DHT22;55469;48.934;12.050;2024-03-29T01:59:40;6.00;99.90
68480;DHT22;55469;48.934;12.050;2024-03-29T02:02:06;6.10;99.90
68480;DHT22;55469;48.934;12.050;2024-03-29T02:04:32;6.00;99.90
68480;DHT22;55469;48.934;12.050;2024-03-29T02:06:57;6.00;99.90
68480;DHT22;55469;48.934;12.050;2024-03-29T02:09:23;6.00;99.90
68480;DHT22;55469;48.934;12.050;2024-03-29T02:11:49;6.00;99.90
68480;DHT22;55469;48.934;12.050;2024-03-29T02:14:16;6.00;99.90
68480;DHT22;55469;48.934;12.050;2024-03-29T02:16:41;6.00;99.90
68480;DHT22;55469;48.934;12.050;2024-03-29T02:19:07;6.00;99.90
68480;DHT22;55469;48.934;12.050;2024-03-29T02:21:33;6.00;99.90
68480;DHT22;55469;48.934;12.050;2024-03-29T02:24:05;6.00;99.90
68480;DHT22;55469;48.934;12.050;2024-03-29T02:26:31;5.90;99.90
68480;DHT22;55469;48.934;12.050;2024-03-29T02:29:01;5.90;99.90
68480;DHT22;55469;48.934;12.050;2024-03-29T02:31:29;5.90;99.90
68480;DHT22;55469;48.934;12.050;2024-03-29T02:33:55;5.90;99.90
68480;DHT22;55469;48.934;12.050;2024-03-29T02:36:20;5.90;99.90
68480;DHT22;55469;48.934;12.050;2024-03-29T02:38:46;5.90;99.90
68480;DHT22;55469;48.934;12.050;2024-03-29T02:41:12;5.90;99.90
68480;DHT22;55469;48.934;12.050;2024-03-29T02:43:37;5.90;99.90
68480;DHT22;55469;48.934;12.050;2024-03-29T02:46:03;5.90;99.90
68480;DHT22;55469;48.934;12.050;2024-03-29T02:48:29;5.80;99.90
68480;DHT22;55469;48.934;12.050;2024-03-29T02:50:54;5.80;99.90
68480;DHT22;55469;48.934;12.050;2024-03-29T02:53:20;5.80;99.90
68480;DHT22;55469;48.934;12.050;2024-03-29T02:55:45;5.80;99.90
68480;DHT22;55469;48.934;12.050;2024-03-29T02:58:11;5.80;99.90
68480;DHT22;55469;48.934;12.050;2024-03-29T03:00:37;5.80;99.90
68480;DHT22;55469;48.934;12.050;2024-03-29T03:03:02;5.80;99.90
68480;DHT22;55469;48.934;12.050;2024-03-29T03:05:29;5.80;99.90
68480;DHT22;55469;48.934;12.050;2024-03-29T03:07:54;5.80;99.90
68480;DHT22;55469;48.934;12.050;2024-03-29T03:10:44;5.80;99.90
68480;DHT22;55469;48.934;12.050;2024-03-29T03:13:29;5.80;99.90
68480;DHT22;55469;48.934;12.050;2024-03-29T03:15:55;5.80;99.90
68480;DHT22;55469;48.934;12.050;2024-03-29T03:18:21;5.70;99.90
68480;DHT22;55469;48.934;12.050;2024-03-29T03:20:53;5.80;99.90
68480;DHT22;55469;48.934;12.050;2024-03-29T03:23:19;5.70;99.90
68480;DHT22;55469;48.934;12.050;2024-03-29T03:25:46;5.70;99.90
68480;DHT22;55469;48.934;12.050;2024-03-29T03:28:18;5.70;99.90
68480;DHT22;55469;48.934;12.050;2024-03-29T03:30:44;5.70;99.90
68480;DHT22;55469;48.934;12.050;2024-03-29T03:33:10;5.70;99.90
68480;DHT22;55469;48.934;12.050;2024-03-29T03:35:35;5.70;99.90
68480;DHT22;55469;48.934;12.050;2024-03-29T03:38:01;5.70;99.90
68480;DHT22;55469;48.934;12.050;2024-03-29T03:40:26;5.70;99.90
68480;DHT22;55469;48.934;12.050;2024-03-29T03:42:52;5.70;99.90
68480;DHT22;55469;48.934;12.050;2024-03-29T03:45:18;5.70;99.90
68480;DHT22;55469;48.934;12.050;2024-03-29T03:47:43;5.70;99.90
68480;DHT22;55469;48.934;12.050;2024-03-29T03:50:09;5.60;99.90
68480;DHT22;55469;48.934;12.050;2024-03-29T03:52:34;5.60;99.90
68480;DHT22;55469;48.934;12.050;2024-03-29T03:55:00;5.60;99.90
68480;DHT22;55469;48.934;12.050;2024-03-29T03:57:26;5.60;99.90
68480;DHT22;55469;48.934;12.050;2024-03-29T03:59:51;5.60;99.90
68480;DHT22;55469;48.934;12.050;2024-03-29T04:02:17;5.60;99.90
68480;DHT22;55469;48.934;12.050;2024-03-29T04:04:44;5.60;99.90
68480;DHT22;55469;48.934;12.050;2024-03-29T04:07:12;5.60;99.90
68480;DHT22;55469;48.934;12.050;2024-03-29T04:09:38;5.60;99.90
68480;DHT22;55469;48.934;12.050;2024-03-29T04:12:03;5.60;99.90
68480;DHT22;55469;48.934;12.050;2024-03-29T04:14:29;5.60;99.90
68480;DHT22;55469;48.934;12.050;2024-03-29T04:16:55;5.50;99.90
68480;DHT22;55469;48.934;12.050;2024-03-29T04:19:20;5.50;99.90
68480;DHT22;55469;48.934;12.050;2024-03-29T04:21:46;5.50;99.90
68480;DHT22;55469;48.934;12.050;2024-03-29T04:24:12;5.50;99.90
68480;DHT22;55469;48.934;12.050;2024-03-29T04:26:38;5.50;99.90
68480;DHT22;55469;48.934;12.050;2024-03-29T04:29:05;5.40;99.90
68480;DHT22;55469;48.934;12.050;2024-03-29T04:31:30;5.40;99.90
68480;DHT22;55469;48.934;12.050;2024-03-29T04:33:56;5.50;99.90
68480;DHT22;55469;48.934;12.050;2024-03-29T04:36:23;5.40;99.90
68480;DHT22;55469;48.934;12.050;2024-03-29T04:38:49;5.40;99.90
68480;DHT22;55469;48.934;12.050;2024-03-29T04:41:15;5.40;99.90
68480;DHT22;55469;48.934;12.050;2024-03-29T04:43:42;5.40;99.90
68480;DHT22;55469;48.934;12.050;2024-03-29T04:46:11;5.40;99.90
68480;DHT22;55469;48.934;12.050;2024-03-29T04:48:38;5.40;99.90
68480;DHT22;55469;48.934;12.050;2024-03-29T04:51:05;5.40;99.90
68480;DHT22;55469;48.934;12.050;2024-03-29T04:53:31;5.40;99.90
68480;DHT22;55469;48.934;12.050;2024-03-29T04:55:57;5.40;99.90
68480;DHT22;55469;48.934;12.050;2024-03-29T04:58:23;5.40;99.90
68480;DHT22;55469;48.934;12.050;2024-03-29T05:00:50;5.30;99.90
68480;DHT22;55469;48.934;12.050;2024-03-29T05:03:19;5.40;99.90
68480;DHT22;55469;48.934;12.050;2024-03-29T05:05:45;5.30;99.90
68480;DHT22;55469;48.934;12.050;2024-03-29T05:08:11;5.30;99.90
68480;DHT22;55469;48.934;12.050;2024-03-29T05:10:37;5.30;99.90
68480;DHT22;55469;48.934;12.050;2024-03-29T05:13:04;5.30;99.90
68480;DHT22;55469;48.934;12.050;2024-03-29T05:15:29;5.30;99.90
68480;DHT22;55469;48.934;12.050;2024-03-29T05:17:55;5.30;99.90
68480;DHT22;55469;48.934;12.050;2024-03-29T05:20:20;5.30;99.90
68480;DHT22;55469;48.934;12.050;2024-03-29T05:22:46;5.30;99.90
68480;DHT22;55469;48.934;12.050;2024-03-29T05:25:12;5.30;99.90
68480;DHT22;55469;48.934;12.050;2024-03-29T05:27:37;5.30;99.90
68480;DHT22;55469;48.934;12.050;2024-03-29T05:30:03;5.30;99.90
68480;DHT22;55469;48.934;12.050;2024-03-29T05:32:29;5.30;99.90
68480;DHT22;55469;48.934;12.050;2024-03-29T05:34:55;5.30;99.90
68480;DHT22;55469;48.934;12.050;2024-03-29T05:37:21;5.30;99.90
68480;DHT22;55469;48.934;12.050;2024-03-29T05:39:50;5.30;99.90
68480;DHT22;55469;48.934;12.050;2024-03-29T05:42:27;5.30;99.90
68480;DHT22;55469;48.934;12.050;2024-03-29T05:44:52;5.30;99.90
68480;DHT22;55469;48.934;12.050;2024-03-29T05:47:18;5.20;99.90
68480;DHT22;55469;48.934;12.050;2024-03-29T05:49:45;5.20;99.90
68480;DHT22;55469;48.934;12.050;2024-03-29T05:52:10;5.30;99.90
68480;DHT22;55469;48.934;12.050;2024-03-29T05:54:45;5.20;99.90
68480;DHT22;55469;48.934;12.050;2024-03-29T05:57:11;5.30;99.90
68480;DHT22;55469;48.934;12.050;2024-03-29T05:59:37;5.20;99.90
68480;DHT22;55469;48.934;12.050;2024-03-29T06:02:03;5.20;99.90
68480;DHT22;55469;48.934;12.050;2024-03-29T06:04:29;5.20;99.90
68480;DHT22;55469;48.934;12.050;2024-03-29T06:07:04;5.20;99.90
68480;DHT22;55469;48.934;12.050;2024-03-29T06:09:30;5.30;99.90
68480;DHT22;55469;48.934;12.050;2024-03-29T06:11:58;5.20;99.90
68480;DHT22;55469;48.934;12.050;2024-03-29T06:14:24;5.20;99.90
68480;DHT22;55469;48.934;12.050;2024-03-29T06:17:08;5.20;99.90
68480;DHT22;55469;48.934;12.050;2024-03-29T06:19:53;5.20;99.90
68480;DHT22;55469;48.934;12.050;2024-03-29T06:22:24;5.20;99.90
68480;DHT22;55469;48.934;12.050;2024-03-29T06:24:52;5.20;99.90
68480;DHT22;55469;48.934;12.050;2024-03-29T06:27:19;5.20;99.90
68480;DHT22;55469;48.934;12.050;2024-03-29T06:29:48;5.20;99.90
68480;DHT22;55469;48.934;12.050;2024-03-29T06:32:14;5.20;99.90
68480;DHT22;55469;48.934;12.050;2024-03-29T06:34:40;5.20;99.90
68480;DHT22;55469;48.934;12.050;2024-03-29T06:37:05;5.20;99.90
68480;DHT22;55469;48.934;12.050;2024-03-29T06:39:33;5.20;99.90
68480;DHT22;55469;48.934;12.050;2024-03-29T06:41:58;5.20;99.90
68480;DHT22;55469;48.934;12.050;2024-03-29T06:44:24;5.20;99.90
68480;DHT22;55469;48.934;12.050;2024-03-29T06:46:50;5.20;99.90
68480;DHT22;55469;48.934;12.050;2024-03-29T06:49:16;5.20;99.90
68480;DHT22;55469;48.934;12.050;2024-03-29T06:51:41;5.20;99.90
68480;DHT22;55469;48.934;12.050;2024-03-29T06:54:07;5.20;99.90
68480;DHT22;55469;48.934;12.050;2024-03-29T06:56:33;5.20;99.90
68480;DHT22;55469;48.934;12.050;2024-03-29T06:58:58;5.20;99.90
68480;DHT22;55469;48.934;12.050;2024-03-29T07:01:24;5.20;99.90
68480;DHT22;55469;48.934;12.050;2024-03-29T07:03:50;5.20;99.90
68480;DHT22;55469;48.934;12.050;2024-03-29T07:06:16;5.20;99.90
68480;DHT22;55469;48.934;12.050;2024-03-29T07:08:41;5.20;99.90
68480;DHT22;55469;48.934;12.050;2024-03-29T07:11:07;5.20;99.90
68480;DHT22;55469;48.934;12.050;2024-03-29T07:13:33;5.20;99.90
68480;DHT22;55469;48.934;12.050;2024-03-29T07:15:59;5.20;99.90
68480;DHT22;55469;48.934;12.050;2024-03-29T07:18:25;5.20;99.90
68480;DHT22;55469;48.934;12.050;2024-03-29T07:20:51;5.20;99.90
68480;DHT22;55469;48.934;12.050;2024-03-29T07:23:17;5.20;99.90
68480;DHT22;55469;48.934;12.050;2024-03-29T07:25:56;5.20;99.90
68480;DHT22;55469;48.934;12.050;2024-03-29T07:28:23;5.20;99.90
68480;DHT22;55469;48.934;12.050;2024-03-29T07:30:49;5.20;99.90
68480;DHT22;55469;48.934;12.050;2024-03-29T07:33:15;5.20;99.90
68480;DHT22;55469;48.934;12.050;2024-03-29T07:35:41;5.20;99.90
68480;DHT22;55469;48.934;12.050;2024-03-29T07:38:07;5.20;99.90
68480;DHT22;55469;48.934;12.050;2024-03-29T07:40:33;5.20;99.90
68480;DHT22;55469;48.934;12.050;2024-03-29T07:43:00;5.20;99.90
68480;DHT22;55469;48.934;12.050;2024-03-29T07:45:26;5.20;99.90
68480;DHT22;55469;48.934;12.050;2024-03-29T07:47:52;5.20;99.90
68480;DHT22;55469;48.934;12.050;2024-03-29T07:50:18;5.20;99.90
68480;DHT22;55469;48.934;12.050;2024-03-29T07:52:45;5.20;99.90
68480;DHT22;55469;48.934;12.050;2024-03-29T07:55:10;5.30;99.90
68480;DHT22;55469;48.934;12.050;2024-03-29T07:57:36;5.30;99.90
68480;DHT22;55469;48.934;12.050;2024-03-29T08:00:02;5.30;99.90
68480;DHT22;55469;48.934;12.050;2024-03-29T08:02:28;5.30;99.90
68480;DHT22;55469;48.934;12.050;2024-03-29T08:04:55;5.30;99.90
68480;DHT22;55469;48.934;12.050;2024-03-29T08:07:21;5.30;99.90
68480;DHT22;55469;48.934;12.050;2024-03-29T08:09:46;5.40;99.90
68480;DHT22;55469;48.934;12.050;2024-03-29T08:12:12;5.40;99.90
68480;DHT22;55469;48.934;12.050;2024-03-29T08:14:38;5.40;99.90
68480;DHT22;55469;48.934;12.050;2024-03-29T08:17:03;5.40;99.90
68480;DHT22;55469;48.934;12.050;2024-03-29T08:19:33;5.40;99.90
68480;DHT22;55469;48.934;12.050;2024-03-29T08:21:59;5.50;99.90
68480;DHT22;55469;48.934;12.050;2024-03-29T08:24:26;5.50;99.90
68480;DHT22;55469;48.934;12.050;2024-03-29T08:26:52;5.50;99.90
68480;DHT22;55469;48.934;12.050;2024-03-29T08:29:18;5.50;99.90
68480;DHT22;55469;48.934;12.050;2024-03-29T08:31:44;5.50;99.90
68480;DHT22;55469;48.934;12.050;2024-03-29T08:34:09;5.50;99.90
68480;DHT22;55469;48.934;12.050;2024-03-29T08:36:38;5.50;99.90
68480;DHT22;55469;48.934;12.050;2024-03-29T08:39:07;5.50;99.90
68480;DHT22;55469;48.934;12.050;2024-03-29T08:41:32;5.50;99.90
68480;DHT22;55469;48.934;12.050;2024-03-29T08:43:58;5.60;99.90
68480;DHT22;55469;48.934;12.050;2024-03-29T08:46:23;5.60;99.90
68480;DHT22;55469;48.934;12.050;2024-03-29T08:48:49;5.60;99.90
68480;DHT22;55469;48.934;12.050;2024-03-29T08:51:14;5.60;99.90
68480;DHT22;55469;48.934;12.050;2024-03-29T08:53:41;5.60;99.90
68480;DHT22;55469;48.934;12.050;2024-03-29T08:56:06;5.60;99.90
68480;DHT22;55469;48.934;12.050;2024-03-29T08:58:32;5.60;99.90
68480;DHT22;55469;48.934;12.050;2024-03-29T09:00:58;5.60;99.90
68480;DHT22;55469;48.934;12.050;2024-03-29T09:03:23;5.70;99.90
68480;DHT22;55469;48.934;12.050;2024-03-29T09:05:49;5.70;99.90
68480;DHT22;55469;48.934;12.050;2024-03-29T09:08:16;5.70;99.90
68480;DHT22;55469;48.934;12.050;2024-03-29T09:10:42;5.70;99.90
68480;DHT22;55469;48.934;12.050;2024-03-29T09:13:07;5.70;99.90
68480;DHT22;55469;48.934;12.050;2024-03-29T09:15:34;5.70;99.90
68480;DHT22;55469;48.934;12.050;2024-03-29T09:18:00;5.70;99.90
68480;DHT22;55469;48.934;12.050;2024-03-29T09:20:35;5.70;99.90
68480;DHT22;55469;48.934;12.050;2024-03-29T09:23:01;5.70;99.90
68480;DHT22;55469;48.934;12.050;2024-03-29T09:25:26;5.80;99.90
68480;DHT22;55469;48.934;12.050;2024-03-29T09:27:55;5.80;99.90
68480;DHT22;55469;48.934;12.050;2024-03-29T09:30:21;5.80;99.90
68480;DHT22;55469;48.934;12.050;2024-03-29T09:32:47;5.80;99.90
68480;DHT22;55469;48.934;12.050;2024-03-29T09:35:15;5.80;99.90
68480;DHT22;55469;48.934;12.050;2024-03-29T09:37:42;5.80;99.90
68480;DHT22;55469;48.934;12.050;2024-03-29T09:40:08;5.90;99.90
68480;DHT22;55469;48.934;12.050;2024-03-29T09:42:35;5.90;99.90
68480;DHT22;55469;48.934;12.050;2024-03-29T09:45:02;5.90;99.90
68480;DHT22;55469;48.934;12.050;2024-03-29T09:47:31;5.90;99.90
68480;DHT22;55469;48.934;12.050;2024-03-29T09:49:59;5.90;99.90
68480;DHT22;55469;48.934;12.050;2024-03-29T09:52:25;5.90;99.90
68480;DHT22;55469;48.934;12.050;2024-03-29T09:54:51;5.90;99.90
68480;DHT22;55469;48.934;12.050;2024-03-29T09:57:17;5.90;99.90
68480;DHT22;55469;48.934;12.050;2024-03-29T09:59:43;6.00;99.90
68480;DHT22;55469;48.934;12.050;2024-03-29T10:02:11;6.00;99.90
68480;DHT22;55469;48.934;12.050;2024-03-29T10:04:41;6.00;99.90
68480;DHT22;55469;48.934;12.050;2024-03-29T10:07:07;6.00;99.90
68480;DHT22;55469;48.934;12.050;2024-03-29T10:09:33;6.00;99.90
68480;DHT22;55469;48.934;12.050;2024-03-29T10:12:01;6.00;99.90
68480;DHT22;55469;48.934;12.050;2024-03-29T10:14:29;6.00;99.90
68480;DHT22;55469;48.934;12.050;2024-03-29T10:16:57;6.00;99.90
68480;DHT22;55469;48.934;12.050;2024-03-29T10:19:23;6.00;99.90
68480;DHT22;55469;48.934;12.050;2024-03-29T10:21:48;6.10;99.90
68480;DHT22;55469;48.934;12.050;2024-03-29T10:24:15;6.10;99.90
68480;DHT22;55469;48.934;12.050;2024-03-29T10:26:45;6.10;99.90
68480;DHT22;55469;48.934;12.050;2024-03-29T10:29:11;6.10;99.90
68480;DHT22;55469;48.934;12.050;2024-03-29T10:31:37;6.20;99.90
68480;DHT22;55469;48.934;12.050;2024-03-29T10:34:06;6.20;99.90
68480;DHT22;55469;48.934;12.050;2024-03-29T10:36:32;6.20;99.90
68480;DHT22;55469;48.934;12.050;2024-03-29T10:39:08;6.30;99.90
68480;DHT22;55469;48.934;12.050;2024-03-29T10:41:41;6.30;99.90
68480;DHT22;55469;48.934;12.050;2024-03-29T10:44:08;6.30;99.90
68480;DHT22;55469;48.934;12.050;2024-03-29T10:46:37;6.40;99.90
68480;DHT22;55469;48.934;12.050;2024-03-29T10:49:08;6.40;99.90
68480;DHT22;55469;48.934;12.050;2024-03-29T10:51:39;6.50;99.90
68480;DHT22;55469;48.934;12.050;2024-03-29T10:54:12;6.50;99.90
68480;DHT22;55469;48.934;12.050;2024-03-29T10:56:38;6.50;99.90
68480;DHT22;55469;48.934;12.050;2024-03-29T11:02:00;6.60;99.90
68480;DHT22;55469;48.934;12.050;2024-03-29T11:04:33;6.60;99.90
68480;DHT22;55469;48.934;12.050;2024-03-29T11:07:04;6.60;99.90
68480;DHT22;55469;48.934;12.050;2024-03-29T11:09:32;6.60;99.90
68480;DHT22;55469;48.934;12.050;2024-03-29T11:11:59;6.70;99.90
68480;DHT22;55469;48.934;12.050;2024-03-29T11:14:30;6.70;99.90
68480;DHT22;55469;48.934;12.050;2024-03-29T11:17:08;6.80;99.90
68480;DHT22;55469;48.934;12.050;2024-03-29T11:19:37;6.80;99.90
68480;DHT22;55469;48.934;12.050;2024-03-29T11:22:03;6.80;99.90
68480;DHT22;55469;48.934;12.050;2024-03-29T11:24:30;6.80;99.90
68480;DHT22;55469;48.934;12.050;2024-03-29T11:26:57;6.90;99.90
68480;DHT22;55469;48.934;12.050;2024-03-29T11:29:23;6.90;99.90
68480;DHT22;55469;48.934;12.050;2024-03-29T11:31:58;7.00;99.90
68480;DHT22;55469;48.934;12.050;2024-03-29T11:34:24;7.00;99.90
68480;DHT22;55469;48.934;12.050;2024-03-29T11:36:50;7.00;99.90
68480;DHT22;55469;48.934;12.050;2024-03-29T11:39:22;7.00;99.90
68480;DHT22;55469;48.934;12.050;2024-03-29T11:41:48;7.10;99.90
68480;DHT22;55469;48.934;12.050;2024-03-29T11:44:14;7.10;99.90
68480;DHT22;55469;48.934;12.050;2024-03-29T11:46:40;7.10;99.90
68480;DHT22;55469;48.934;12.050;2024-03-29T11:49:06;7.20;99.90
68480;DHT22;55469;48.934;12.050;2024-03-29T11:51:32;7.20;99.90
68480;DHT22;55469;48.934;12.050;2024-03-29T11:53:59;7.20;99.90
68480;DHT22;55469;48.934;12.050;2024-03-29T11:56:25;7.20;99.90
68480;DHT22;55469;48.934;12.050;2024-03-29T11:58:51;7.30;99.90
68480;DHT22;55469;48.934;12.050;2024-03-29T12:01:16;7.30;99.90
68480;DHT22;55469;48.934;12.050;2024-03-29T12:03:42;7.30;99.90
68480;DHT22;55469;48.934;12.050;2024-03-29T12:06:09;7.40;99.90
68480;DHT22;55469;48.934;12.050;2024-03-29T12:08:35;7.40;99.90
68480;DHT22;55469;48.934;12.050;2024-03-29T12:11:02;7.40;99.90
68480;DHT22;55469;48.934;12.050;2024-03-29T12:13:29;7.40;99.90
68480;DHT22;55469;48.934;12.050;2024-03-29T12:15:55;7.40;99.90
68480;DHT22;55469;48.934;12.050;2024-03-29T12:18:21;7.40;99.90
68480;DHT22;55469;48.934;12.050;2024-03-29T12:20:51;7.50;99.90
68480;DHT22;55469;48.934;12.050;2024-03-29T12:23:18;7.50;99.90
68480;DHT22;55469;48.934;12.050;2024-03-29T12:25:44;7.60;99.90
68480;DHT22;55469;48.934;12.050;2024-03-29T12:28:10;7.60;99.90
68480;DHT22;55469;48.934;12.050;2024-03-29T12:30:37;7.60;99.90
68480;DHT22;55469;48.934;12.050;2024-03-29T12:33:06;7.60;99.90
68480;DHT22;55469;48.934;12.050;2024-03-29T12:35:33;7.70;99.90
68480;DHT22;55469;48.934;12.050;2024-03-29T12:37:59;7.70;99.90
68480;DHT22;55469;48.934;12.050;2024-03-29T12:40:29;7.80;99.90
68480;DHT22;55469;48.934;12.050;2024-03-29T12:43:02;7.80;99.90
68480;DHT22;55469;48.934;12.050;2024-03-29T12:45:28;7.80;99.90
68480;DHT22;55469;48.934;12.050;2024-03-29T12:47:54;7.80;99.90
68480;DHT22;55469;48.934;12.050;2024-03-29T12:50:30;7.90;99.90
68480;DHT22;55469;48.934;12.050;2024-03-29T12:52:58;7.90;99.90
68480;DHT22;55469;48.934;12.050;2024-03-29T12:55:26;7.90;99.90
68480;DHT22;55469;48.934;12.050;2024-03-29T12:58:20;8.00;99.90
68480;DHT22;55469;48.934;12.050;2024-03-29T13:00:47;8.00;99.90
68480;DHT22;55469;48.934;12.050;2024-03-29T13:03:13;8.10;99.90
68480;DHT22;55469;48.934;12.050;2024-03-29T13:05:39;8.10;99.90
68480;DHT22;55469;48.934;12.050;2024-03-29T13:08:12;8.10;99.90
68480;DHT22;55469;48.934;12.050;2024-03-29T13:10:41;8.10;99.90
68480;DHT22;55469;48.934;12.050;2024-03-29T13:13:07;8.20;99.90
68480;DHT22;55469;48.934;12.050;2024-03-29T13:15:34;8.20;99.90
68480;DHT22;55469;48.934;12.050;2024-03-29T13:18:01;8.20;99.90
68480;DHT22;55469;48.934;12.050;2024-03-29T13:20:27;8.30;99.90
68480;DHT22;55469;48.934;12.050;2024-03-29T13:22:52;8.30;99.90
68480;DHT22;55469;48.934;12.050;2024-03-29T13:25:20;8.30;99.90
68480;DHT22;55469;48.934;12.050;2024-03-29T13:27:52;8.30;99.90
68480;DHT22;55469;48.934;12.050;2024-03-29T13:30:23;8.40;99.90
68480;DHT22;55469;48.934;12.050;2024-03-29T13:32:50;8.40;99.90
68480;DHT22;55469;48.934;12.050;2024-03-29T13:35:16;8.50;99.90
68480;DHT22;55469;48.934;12.050;2024-03-29T13:37:42;8.50;99.90
68480;DHT22;55469;48.934;12.050;2024-03-29T13:40:09;8.50;99.90
68480;DHT22;55469;48.934;12.050;2024-03-29T13:42:38;8.50;99.90
68480;DHT22;55469;48.934;12.050;2024-03-29T13:45:04;8.60;99.90
68480;DHT22;55469;48.934;12.050;2024-03-29T13:47:34;8.60;99.90
68480;DHT22;55469;48.934;12.050;2024-03-29T13:50:00;8.60;99.90
68480;DHT22;55469;48.934;12.050;2024-03-29T13:52:26;8.70;99.90
68480;DHT22;55469;48.934;12.050;2024-03-29T13:54:54;8.70;99.90
68480;DHT22;55469;48.934;12.050;2024-03-29T13:57:19;8.70;99.90
68480;DHT22;55469;48.934;12.050;2024-03-29T13:59:46;8.80;99.90
68480;DHT22;55469;48.934;12.050;2024-03-29T14:02:12;8.80;99.90
68480;DHT22;55469;48.934;12.050;2024-03-29T14:04:39;8.80;99.90
68480;DHT22;55469;48.934;12.050;2024-03-29T14:07:05;8.80;99.90
68480;DHT22;55469;48.934;12.050;2024-03-29T14:09:36;8.90;99.90
68480;DHT22;55469;48.934;12.050;2024-03-29T14:12:02;8.90;99.90
68480;DHT22;55469;48.934;12.050;2024-03-29T14:14:29;8.90;99.90
68480;DHT22;55469;48.934;12.050;2024-03-29T14:16:55;8.90;99.90
68480;DHT22;55469;48.934;12.050;2024-03-29T14:19:20;9.00;99.90
68480;DHT22;55469;48.934;12.050;2024-03-29T14:21:46;9.00;99.90
68480;DHT22;55469;48.934;12.050;2024-03-29T14:24:12;9.10;99.90
68480;DHT22;55469;48.934;12.050;2024-03-29T14:26:37;9.10;99.90
68480;DHT22;55469;48.934;12.050;2024-03-29T14:29:04;9.10;99.90
68480;DHT22;55469;48.934;12.050;2024-03-29T14:31:31;9.20;99.90
68480;DHT22;55469;48.934;12.050;2024-03-29T14:33:57;9.20;99.90
68480;DHT22;55469;48.934;12.050;2024-03-29T14:36:23;9.20;99.90
68480;DHT22;55469;48.934;12.050;2024-03-29T14:38:49;9.30;99.90
68480;DHT22;55469;48.934;12.050;2024-03-29T14:41:15;9.50;99.90
68480;DHT22;55469;48.934;12.050;2024-03-29T14:43:41;9.60;99.90
68480;DHT22;55469;48.934;12.050;2024-03-29T14:46:09;9.80;99.90
68480;DHT22;55469;48.934;12.050;2024-03-29T14:48:35;9.80;99.90
68480;DHT22;55469;48.934;12.050;2024-03-29T14:51:01;9.90;99.90
68480;DHT22;55469;48.934;12.050;2024-03-29T14:53:26;10.00;99.90
68480;DHT22;55469;48.934;12.050;2024-03-29T14:55:52;10.10;99.90
68480;DHT22;55469;48.934;12.050;2024-03-29T14:58:17;10.20;99.90
68480;DHT22;55469;48.934;12.050;2024-03-29T15:00:43;10.30;99.90
68480;DHT22;55469;48.934;12.050;2024-03-29T15:03:12;10.30;99.90
68480;DHT22;55469;48.934;12.050;2024-03-29T15:05:38;10.40;99.90
68480;DHT22;55469;48.934;12.050;2024-03-29T15:08:03;10.50;99.90
68480;DHT22;55469;48.934;12.050;2024-03-29T15:10:29;10.60;99.90
68480;DHT22;55469;48.934;12.050;2024-03-29T15:12:57;10.70;99.90
68480;DHT22;55469;48.934;12.050;2024-03-29T15:15:22;10.80;99.90
68480;DHT22;55469;48.934;12.050;2024-03-29T15:17:48;10.80;99.90
68480;DHT22;55469;48.934;12.050;2024-03-29T15:20:14;10.90;99.90
68480;DHT22;55469;48.934;12.050;2024-03-29T15:22:43;11.00;99.90
68480;DHT22;55469;48.934;12.050;2024-03-29T15:25:13;11.00;99.90
68480;DHT22;55469;48.934;12.050;2024-03-29T15:27:38;11.10;99.90
68480;DHT22;55469;48.934;12.050;2024-03-29T15:30:22;11.10;99.90